sensor_id;sensor_type;location;lat;lon;timestamp;temperature;humidity
65568;DHT22;52211;50.154;8.682;2023-04-25T00:00:09;11.70;62.00
65568;DHT22;52211;50.154;8.682;2023-04-25T00:02:40;11.70;62.00
65568;DHT22;52211;50.154;8.682;2023-04-25T00:05:08;11.70;62.00
65568;DHT22;52211;50.154;8.682;2023-04-25T00:07:38;11.60;62.00
65568;DHT22;52211;50.154;8.682;2023-04-25T00:10:12;11.60;62.10
65568;DHT22;52211;50.154;8.682;2023-04-25T00:12:39;11.60;62.30
65568;DHT22;52211;50.154;8.682;2023-04-25T00:15:10;11.60;62.20
65568;DHT22;52211;50.154;8.682;2023-04-25T00:17:42;11.60;62.30
65568;DHT22;52211;50.154;8.682;2023-04-25T00:20:09;11.60;62.30
65568;DHT22;52211;50.154;8.682;2023-04-25T00:22:37;11.50;62.30
65568;DHT22;52211;50.154;8.682;2023-04-25T00:25:05;11.50;62.20
65568;DHT22;52211;50.154;8.682;2023-04-25T00:27:33;11.50;62.40
65568;DHT22;52211;50.154;8.682;2023-04-25T00:30:05;11.50;62.50
65568;DHT22;52211;50.154;8.682;2023-04-25T00:32:33;11.50;62.50
65568;DHT22;52211;50.154;8.682;2023-04-25T00:35:05;11.50;62.70
65568;DHT22;52211;50.154;8.682;2023-04-25T00:37:35;11.50;62.70
65568;DHT22;52211;50.154;8.682;2023-04-25T00:40:04;11.50;62.90
65568;DHT22;52211;50.154;8.682;2023-04-25T00:42:40;11.50;62.80
65568;DHT22;52211;50.154;8.682;2023-04-25T00:45:13;11.50;62.80
65568;DHT22;52211;50.154;8.682;2023-04-25T00:47:49;11.50;62.90
65568;DHT22;52211;50.154;8.682;2023-04-25T00:50:25;11.50;62.80
65568;DHT22;52211;50.154;8.682;2023-04-25T00:52:52;11.50;62.90
65568;DHT22;52211;50.154;8.682;2023-04-25T00:55:19;11.50;62.80
65568;DHT22;52211;50.154;8.682;2023-04-25T00:57:46;11.50;62.70
65568;DHT22;52211;50.154;8.682;2023-04-25T01:00:18;11.50;62.80
65568;DHT22;52211;50.154;8.682;2023-04-25T01:02:49;11.50;63.00
65568;DHT22;52211;50.154;8.682;2023-04-25T01:05:17;11.50;63.00
65568;DHT22;52211;50.154;8.682;2023-04-25T01:07:45;11.40;62.90
65568;DHT22;52211;50.154;8.682;2023-04-25T01:10:14;11.50;63.10
65568;DHT22;52211;50.154;8.682;2023-04-25T01:12:44;11.50;63.10
65568;DHT22;52211;50.154;8.682;2023-04-25T01:15:13;11.50;63.10
65568;DHT22;52211;50.154;8.682;2023-04-25T01:17:45;11.50;63.40
65568;DHT22;52211;50.154;8.682;2023-04-25T01:20:16;11.50;63.50
65568;DHT22;52211;50.154;8.682;2023-04-25T01:22:45;11.50;63.40
65568;DHT22;52211;50.154;8.682;2023-04-25T01:25:19;11.50;63.50
65568;DHT22;52211;50.154;8.682;2023-04-25T01:27:52;11.50;63.40
65568;DHT22;52211;50.154;8.682;2023-04-25T01:30:19;11.60;63.40
65568;DHT22;52211;50.154;8.682;2023-04-25T01:32:49;11.50;63.30
65568;DHT22;52211;50.154;8.682;2023-04-25T01:35:19;11.60;63.50
65568;DHT22;52211;50.154;8.682;2023-04-25T01:37:52;11.50;63.20
65568;DHT22;52211;50.154;8.682;2023-04-25T01:40:22;11.60;63.20
65568;DHT22;52211;50.154;8.682;2023-04-25T01:42:51;11.60;63.30
65568;DHT22;52211;50.154;8.682;2023-04-25T01:45:22;11.60;63.30
65568;DHT22;52211;50.154;8.682;2023-04-25T01:47:53;11.60;63.20
65568;DHT22;52211;50.154;8.682;2023-04-25T01:50:22;11.50;63.30
65568;DHT22;52211;50.154;8.682;2023-04-25T01:52:52;11.60;63.50
65568;DHT22;52211;50.154;8.682;2023-04-25T01:55:25;11.60;63.60
65568;DHT22;52211;50.154;8.682;2023-04-25T01:58:02;11.60;63.50
65568;DHT22;52211;50.154;8.682;2023-04-25T02:00:56;11.60;63.60
65568;DHT22;52211;50.154;8.682;2023-04-25T02:03:34;11.60;63.40
65568;DHT22;52211;50.154;8.682;2023-04-25T02:06:06;11.60;63.40
65568;DHT22;52211;50.154;8.682;2023-04-25T02:08:37;11.60;63.60
65568;DHT22;52211;50.154;8.682;2023-04-25T02:11:04;11.60;63.60
65568;DHT22;52211;50.154;8.682;2023-04-25T02:13:38;11.60;63.60
65568;DHT22;52211;50.154;8.682;2023-04-25T02:16:25;11.60;63.50
65568;DHT22;52211;50.154;8.682;2023-04-25T02:18:54;11.60;63.60
65568;DHT22;52211;50.154;8.682;2023-04-25T02:21:26;11.60;63.50
65568;DHT22;52211;50.154;8.682;2023-04-25T02:23:56;11.60;63.40
65568;DHT22;52211;50.154;8.682;2023-04-25T02:26:27;11.60;63.50
65568;DHT22;52211;50.154;8.682;2023-04-25T02:28:56;11.60;63.40
65568;DHT22;52211;50.154;8.682;2023-04-25T02:31:23;11.50;63.40
65568;DHT22;52211;50.154;8.682;2023-04-25T02:33:55;11.50;63.40
65568;DHT22;52211;50.154;8.682;2023-04-25T02:36:27;11.50;63.50
65568;DHT22;52211;50.154;8.682;2023-04-25T02:38:58;11.50;63.60
65568;DHT22;52211;50.154;8.682;2023-04-25T02:41:28;11.50;63.40
65568;DHT22;52211;50.154;8.682;2023-04-25T02:43:57;11.50;63.50
65568;DHT22;52211;50.154;8.682;2023-04-25T02:46:24;11.50;63.50
65568;DHT22;52211;50.154;8.682;2023-04-25T02:49:07;11.40;63.50
65568;DHT22;52211;50.154;8.682;2023-04-25T02:51:36;11.40;63.50
65568;DHT22;52211;50.154;8.682;2023-04-25T02:54:06;11.40;63.50
65568;DHT22;52211;50.154;8.682;2023-04-25T02:56:37;11.40;63.60
65568;DHT22;52211;50.154;8.682;2023-04-25T02:59:12;11.40;63.70
65568;DHT22;52211;50.154;8.682;2023-04-25T03:01:43;11.40;63.80
65568;DHT22;52211;50.154;8.682;2023-04-25T03:04:12;11.40;63.80
65568;DHT22;52211;50.154;8.682;2023-04-25T03:06:41;11.40;63.80
65568;DHT22;52211;50.154;8.682;2023-04-25T03:09:13;11.40;63.80
65568;DHT22;52211;50.154;8.682;2023-04-25T03:11:44;11.40;63.80
65568;DHT22;52211;50.154;8.682;2023-04-25T03:14:14;11.40;63.80
65568;DHT22;52211;50.154;8.682;2023-04-25T03:16:41;11.30;63.90
65568;DHT22;52211;50.154;8.682;2023-04-25T03:19:08;11.30;63.80
65568;DHT22;52211;50.154;8.682;2023-04-25T03:21:35;11.40;63.80
65568;DHT22;52211;50.154;8.682;2023-04-25T03:24:05;11.40;63.90
65568;DHT22;52211;50.154;8.682;2023-04-25T03:26:35;11.40;64.00
65568;DHT22;52211;50.154;8.682;2023-04-25T03:29:05;11.30;63.90
65568;DHT22;52211;50.154;8.682;2023-04-25T03:31:33;11.40;64.00
65568;DHT22;52211;50.154;8.682;2023-04-25T03:34:00;11.40;64.00
65568;DHT22;52211;50.154;8.682;2023-04-25T03:36:27;11.40;64.10
65568;DHT22;52211;50.154;8.682;2023-04-25T03:38:56;11.40;64.10
65568;DHT22;52211;50.154;8.682;2023-04-25T03:41:29;11.40;64.20
65568;DHT22;52211;50.154;8.682;2023-04-25T03:44:02;11.40;64.20
65568;DHT22;52211;50.154;8.682;2023-04-25T03:46:34;11.40;64.30
65568;DHT22;52211;50.154;8.682;2023-04-25T03:49:05;11.40;64.30
65568;DHT22;52211;50.154;8.682;2023-04-25T03:51:51;11.40;64.20
65568;DHT22;52211;50.154;8.682;2023-04-25T03:54:18;11.40;64.10
65568;DHT22;52211;50.154;8.682;2023-04-25T03:56:56;11.40;64.20
65568;DHT22;52211;50.154;8.682;2023-04-25T03:59:26;11.40;64.40
65568;DHT22;52211;50.154;8.682;2023-04-25T04:01:53;11.40;64.20
65568;DHT22;52211;50.154;8.682;2023-04-25T04:04:25;11.40;64.30
65568;DHT22;52211;50.154;8.682;2023-04-25T04:06:52;11.40;64.20
65568;DHT22;52211;50.154;8.682;2023-04-25T04:09:30;11.40;64.30
65568;DHT22;52211;50.154;8.682;2023-04-25T04:12:02;11.40;64.30
65568;DHT22;52211;50.154;8.682;2023-04-25T04:14:31;11.40;64.40
65568;DHT22;52211;50.154;8.682;2023-04-25T04:16:57;11.40;64.30
65568;DHT22;52211;50.154;8.682;2023-04-25T04:19:27;11.40;64.30
65568;DHT22;52211;50.154;8.682;2023-04-25T04:22:08;11.40;64.30
65568;DHT22;52211;50.154;8.682;2023-04-25T04:24:39;11.40;64.20
65568;DHT22;52211;50.154;8.682;2023-04-25T04:27:13;11.30;64.20
65568;DHT22;52211;50.154;8.682;2023-04-25T04:30:00;11.30;64.10
65568;DHT22;52211;50.154;8.682;2023-04-25T04:32:36;11.30;64.00
65568;DHT22;52211;50.154;8.682;2023-04-25T04:35:07;11.20;63.90
65568;DHT22;52211;50.154;8.682;2023-04-25T04:37:38;11.20;63.80
65568;DHT22;52211;50.154;8.682;2023-04-25T04:40:08;11.20;63.80
65568;DHT22;52211;50.154;8.682;2023-04-25T04:42:45;11.10;63.70
65568;DHT22;52211;50.154;8.682;2023-04-25T04:45:25;11.10;63.70
65568;DHT22;52211;50.154;8.682;2023-04-25T04:48:23;11.10;63.60
65568;DHT22;52211;50.154;8.682;2023-04-25T04:51:16;11.00;63.40
65568;DHT22;52211;50.154;8.682;2023-04-25T04:54:08;11.00;63.30
65568;DHT22;52211;50.154;8.682;2023-04-25T04:57:04;10.90;63.40
65568;DHT22;52211;50.154;8.682;2023-04-25T04:59:52;10.80;63.50
65568;DHT22;52211;50.154;8.682;2023-04-25T05:02:40;10.80;63.50
65568;DHT22;52211;50.154;8.682;2023-04-25T05:05:29;10.80;63.50
65568;DHT22;52211;50.154;8.682;2023-04-25T05:08:16;10.80;63.50
65568;DHT22;52211;50.154;8.682;2023-04-25T05:10:54;10.70;63.30
65568;DHT22;52211;50.154;8.682;2023-04-25T05:13:53;10.70;63.30
65568;DHT22;52211;50.154;8.682;2023-04-25T05:16:38;10.70;63.40
65568;DHT22;52211;50.154;8.682;2023-04-25T05:19:19;10.70;63.40
65568;DHT22;52211;50.154;8.682;2023-04-25T05:22:02;10.60;63.40
65568;DHT22;52211;50.154;8.682;2023-04-25T05:24:59;10.60;63.50
65568;DHT22;52211;50.154;8.682;2023-04-25T05:27:54;10.60;63.50
65568;DHT22;52211;50.154;8.682;2023-04-25T05:30:40;10.60;63.50
65568;DHT22;52211;50.154;8.682;2023-04-25T05:33:36;10.60;63.40
65568;DHT22;52211;50.154;8.682;2023-04-25T05:36:07;10.60;63.40
65568;DHT22;52211;50.154;8.682;2023-04-25T05:38:37;10.60;63.40
65568;DHT22;52211;50.154;8.682;2023-04-25T05:41:06;10.60;63.60
65568;DHT22;52211;50.154;8.682;2023-04-25T05:44:07;10.60;63.60
65568;DHT22;52211;50.154;8.682;2023-04-25T05:46:49;10.60;63.70
65568;DHT22;52211;50.154;8.682;2023-04-25T05:49:51;10.70;63.80
65568;DHT22;52211;50.154;8.682;2023-04-25T05:52:45;10.70;63.70
65568;DHT22;52211;50.154;8.682;2023-04-25T05:55:29;10.80;63.70
65568;DHT22;52211;50.154;8.682;2023-04-25T05:58:05;10.80;63.50
65568;DHT22;52211;50.154;8.682;2023-04-25T06:00:32;10.90;63.50
65568;DHT22;52211;50.154;8.682;2023-04-25T06:03:05;10.90;63.40
65568;DHT22;52211;50.154;8.682;2023-04-25T06:05:34;10.90;63.30
65568;DHT22;52211;50.154;8.682;2023-04-25T06:08:06;10.90;63.20
65568;DHT22;52211;50.154;8.682;2023-04-25T06:10:37;10.90;63.10
65568;DHT22;52211;50.154;8.682;2023-04-25T06:13:06;11.00;63.20
65568;DHT22;52211;50.154;8.682;2023-04-25T06:15:36;11.00;63.20
65568;DHT22;52211;50.154;8.682;2023-04-25T06:18:05;11.10;63.30
65568;DHT22;52211;50.154;8.682;2023-04-25T06:20:38;11.10;63.20
65568;DHT22;52211;50.154;8.682;2023-04-25T06:23:09;11.10;63.10
65568;DHT22;52211;50.154;8.682;2023-04-25T06:25:47;11.20;63.00
65568;DHT22;52211;50.154;8.682;2023-04-25T06:28:16;11.20;63.00
65568;DHT22;52211;50.154;8.682;2023-04-25T06:30:43;11.30;63.00
65568;DHT22;52211;50.154;8.682;2023-04-25T06:33:16;11.30;63.00
65568;DHT22;52211;50.154;8.682;2023-04-25T06:35:46;11.30;62.90
65568;DHT22;52211;50.154;8.682;2023-04-25T06:38:16;11.40;62.80
65568;DHT22;52211;50.154;8.682;2023-04-25T06:40:52;11.40;62.80
65568;DHT22;52211;50.154;8.682;2023-04-25T06:43:22;11.40;62.50
65568;DHT22;52211;50.154;8.682;2023-04-25T06:45:57;11.50;62.50
65568;DHT22;52211;50.154;8.682;2023-04-25T06:48:27;11.60;62.40
65568;DHT22;52211;50.154;8.682;2023-04-25T06:51:00;11.50;62.40
65568;DHT22;52211;50.154;8.682;2023-04-25T06:53:27;11.50;62.30
65568;DHT22;52211;50.154;8.682;2023-04-25T06:55:58;11.60;62.30
65568;DHT22;52211;50.154;8.682;2023-04-25T06:58:43;11.60;62.40
65568;DHT22;52211;50.154;8.682;2023-04-25T07:01:17;11.60;62.50
65568;DHT22;52211;50.154;8.682;2023-04-25T07:03:46;11.60;62.40
65568;DHT22;52211;50.154;8.682;2023-04-25T07:06:20;11.60;62.30
65568;DHT22;52211;50.154;8.682;2023-04-25T07:08:49;11.60;62.30
65568;DHT22;52211;50.154;8.682;2023-04-25T07:11:21;11.70;62.30
65568;DHT22;52211;50.154;8.682;2023-04-25T07:13:50;11.70;62.20
65568;DHT22;52211;50.154;8.682;2023-04-25T07:16:22;11.70;62.20
65568;DHT22;52211;50.154;8.682;2023-04-25T07:18:50;11.80;62.20
65568;DHT22;52211;50.154;8.682;2023-04-25T07:21:21;11.80;62.10
65568;DHT22;52211;50.154;8.682;2023-04-25T07:23:55;11.90;62.20
65568;DHT22;52211;50.154;8.682;2023-04-25T07:26:29;11.90;62.10
65568;DHT22;52211;50.154;8.682;2023-04-25T07:29:21;11.90;62.10
65568;DHT22;52211;50.154;8.682;2023-04-25T07:31:50;12.00;62.10
65568;DHT22;52211;50.154;8.682;2023-04-25T07:34:21;12.00;62.10
65568;DHT22;52211;50.154;8.682;2023-04-25T07:36:55;12.00;62.00
65568;DHT22;52211;50.154;8.682;2023-04-25T07:39:24;12.10;61.90
65568;DHT22;52211;50.154;8.682;2023-04-25T07:41:53;12.10;61.90
65568;DHT22;52211;50.154;8.682;2023-04-25T07:44:24;12.10;61.80
65568;DHT22;52211;50.154;8.682;2023-04-25T07:46:52;12.20;61.80
65568;DHT22;52211;50.154;8.682;2023-04-25T07:49:19;12.20;61.70
65568;DHT22;52211;50.154;8.682;2023-04-25T07:51:48;12.20;61.60
65568;DHT22;52211;50.154;8.682;2023-04-25T07:54:18;12.30;61.50
65568;DHT22;52211;50.154;8.682;2023-04-25T07:56:55;12.30;61.50
65568;DHT22;52211;50.154;8.682;2023-04-25T07:59:29;12.40;61.50
65568;DHT22;52211;50.154;8.682;2023-04-25T08:02:00;12.40;61.50
65568;DHT22;52211;50.154;8.682;2023-04-25T08:04:28;12.50;61.50
65568;DHT22;52211;50.154;8.682;2023-04-25T08:07:02;12.60;61.50
65568;DHT22;52211;50.154;8.682;2023-04-25T08:09:41;12.60;61.50
65568;DHT22;52211;50.154;8.682;2023-04-25T08:12:17;12.70;61.40
65568;DHT22;52211;50.154;8.682;2023-04-25T08:14:48;12.80;61.30
65568;DHT22;52211;50.154;8.682;2023-04-25T08:17:15;12.90;61.00
65568;DHT22;52211;50.154;8.682;2023-04-25T08:19:42;13.00;61.00
65568;DHT22;52211;50.154;8.682;2023-04-25T08:22:17;13.00;60.80
65568;DHT22;52211;50.154;8.682;2023-04-25T08:24:51;13.00;60.70
65568;DHT22;52211;50.154;8.682;2023-04-25T08:27:24;13.00;60.50
65568;DHT22;52211;50.154;8.682;2023-04-25T08:29:52;13.10;60.40
65568;DHT22;52211;50.154;8.682;2023-04-25T08:32:21;13.10;60.40
65568;DHT22;52211;50.154;8.682;2023-04-25T08:35:17;13.10;60.10
65568;DHT22;52211;50.154;8.682;2023-04-25T08:37:44;13.10;60.10
65568;DHT22;52211;50.154;8.682;2023-04-25T08:40:15;13.10;60.10
65568;DHT22;52211;50.154;8.682;2023-04-25T08:42:53;13.20;60.20
65568;DHT22;52211;50.154;8.682;2023-04-25T08:45:22;13.20;60.20
65568;DHT22;52211;50.154;8.682;2023-04-25T08:47:54;13.30;60.20
65568;DHT22;52211;50.154;8.682;2023-04-25T08:50:24;13.30;59.90
65568;DHT22;52211;50.154;8.682;2023-04-25T08:52:54;13.40;60.00
65568;DHT22;52211;50.154;8.682;2023-04-25T08:55:28;13.50;59.90
65568;DHT22;52211;50.154;8.682;2023-04-25T08:57:59;13.60;59.90
65568;DHT22;52211;50.154;8.682;2023-04-25T09:00:28;13.60;59.70
65568;DHT22;52211;50.154;8.682;2023-04-25T09:02:56;13.70;59.60
65568;DHT22;52211;50.154;8.682;2023-04-25T09:05:31;13.80;59.60
65568;DHT22;52211;50.154;8.682;2023-04-25T09:08:00;13.90;59.40
65568;DHT22;52211;50.154;8.682;2023-04-25T09:10:30;13.90;59.20
65568;DHT22;52211;50.154;8.682;2023-04-25T09:13:13;13.90;58.80
65568;DHT22;52211;50.154;8.682;2023-04-25T09:16:14;13.90;58.50
65568;DHT22;52211;50.154;8.682;2023-04-25T09:19:22;13.90;58.50
65568;DHT22;52211;50.154;8.682;2023-04-25T09:22:14;13.90;58.10
65568;DHT22;52211;50.154;8.682;2023-04-25T09:24:47;14.00;58.60
65568;DHT22;52211;50.154;8.682;2023-04-25T09:27:21;14.00;58.60
65568;DHT22;52211;50.154;8.682;2023-04-25T09:30:05;14.10;58.40
65568;DHT22;52211;50.154;8.682;2023-04-25T09:32:56;14.10;58.70
65568;DHT22;52211;50.154;8.682;2023-04-25T09:35:26;14.10;57.50
65568;DHT22;52211;50.154;8.682;2023-04-25T09:37:59;14.10;57.60
65568;DHT22;52211;50.154;8.682;2023-04-25T09:40:46;14.10;57.30
65568;DHT22;52211;50.154;8.682;2023-04-25T09:43:25;14.10;57.10
65568;DHT22;52211;50.154;8.682;2023-04-25T09:45:56;14.10;57.10
65568;DHT22;52211;50.154;8.682;2023-04-25T09:48:29;14.20;57.30
65568;DHT22;52211;50.154;8.682;2023-04-25T09:51:11;14.20;57.40
65568;DHT22;52211;50.154;8.682;2023-04-25T09:53:46;14.30;57.10
65568;DHT22;52211;50.154;8.682;2023-04-25T09:56:43;14.30;57.40
65568;DHT22;52211;50.154;8.682;2023-04-25T09:59:20;14.50;57.30
65568;DHT22;52211;50.154;8.682;2023-04-25T10:01:52;14.60;57.00
65568;DHT22;52211;50.154;8.682;2023-04-25T10:04:32;14.70;57.00
65568;DHT22;52211;50.154;8.682;2023-04-25T10:07:08;14.70;56.80
65568;DHT22;52211;50.154;8.682;2023-04-25T10:09:39;14.80;56.50
65568;DHT22;52211;50.154;8.682;2023-04-25T10:12:09;14.90;56.30
65568;DHT22;52211;50.154;8.682;2023-04-25T10:14:42;15.00;56.50
65568;DHT22;52211;50.154;8.682;2023-04-25T10:17:12;15.00;55.80
65568;DHT22;52211;50.154;8.682;2023-04-25T10:19:41;15.00;55.70
65568;DHT22;52211;50.154;8.682;2023-04-25T10:22:34;15.00;56.10
65568;DHT22;52211;50.154;8.682;2023-04-25T10:25:07;15.00;54.90
65568;DHT22;52211;50.154;8.682;2023-04-25T10:27:35;14.90;55.00
65568;DHT22;52211;50.154;8.682;2023-04-25T10:30:13;14.80;54.80
65568;DHT22;52211;50.154;8.682;2023-04-25T10:32:45;14.80;54.70
65568;DHT22;52211;50.154;8.682;2023-04-25T10:35:24;14.70;55.10
65568;DHT22;52211;50.154;8.682;2023-04-25T10:38:02;14.60;54.90
65568;DHT22;52211;50.154;8.682;2023-04-25T10:40:30;14.60;55.20
65568;DHT22;52211;50.154;8.682;2023-04-25T10:43:34;14.50;55.40
65568;DHT22;52211;50.154;8.682;2023-04-25T10:46:01;14.40;54.80
65568;DHT22;52211;50.154;8.682;2023-04-25T10:48:48;14.40;55.50
65568;DHT22;52211;50.154;8.682;2023-04-25T10:51:26;14.30;55.20
65568;DHT22;52211;50.154;8.682;2023-04-25T10:54:07;14.30;55.50
65568;DHT22;52211;50.154;8.682;2023-04-25T11:01:49;14.20;55.70
65568;DHT22;52211;50.154;8.682;2023-04-25T11:04:32;14.20;55.80
65568;DHT22;52211;50.154;8.682;2023-04-25T11:07:29;14.10;55.60
65568;DHT22;52211;50.154;8.682;2023-04-25T11:10:05;14.10;55.30
65568;DHT22;52211;50.154;8.682;2023-04-25T11:12:37;14.10;56.20
65568;DHT22;52211;50.154;8.682;2023-04-25T11:15:09;14.10;56.00
65568;DHT22;52211;50.154;8.682;2023-04-25T11:17:39;14.20;55.90
65568;DHT22;52211;50.154;8.682;2023-04-25T11:20:07;14.20;56.00
65568;DHT22;52211;50.154;8.682;2023-04-25T11:22:38;14.20;55.90
65568;DHT22;52211;50.154;8.682;2023-04-25T11:25:10;14.20;55.70
65568;DHT22;52211;50.154;8.682;2023-04-25T11:27:54;14.30;55.60
65568;DHT22;52211;50.154;8.682;2023-04-25T11:30:25;14.30;54.60
65568;DHT22;52211;50.154;8.682;2023-04-25T11:32:57;14.20;55.30
65568;DHT22;52211;50.154;8.682;2023-04-25T11:35:25;14.20;55.40
65568;DHT22;52211;50.154;8.682;2023-04-25T11:37:52;14.20;55.40
65568;DHT22;52211;50.154;8.682;2023-04-25T11:40:19;14.30;55.80
65568;DHT22;52211;50.154;8.682;2023-04-25T11:42:47;14.50;56.20
65568;DHT22;52211;50.154;8.682;2023-04-25T11:45:20;14.70;56.30
65568;DHT22;52211;50.154;8.682;2023-04-25T11:47:53;15.00;55.40
65568;DHT22;52211;50.154;8.682;2023-04-25T11:50:30;15.10;54.90
65568;DHT22;52211;50.154;8.682;2023-04-25T11:52:59;15.20;53.70
65568;DHT22;52211;50.154;8.682;2023-04-25T11:55:30;15.20;52.90
65568;DHT22;52211;50.154;8.682;2023-04-25T11:58:02;15.20;52.60
65568;DHT22;52211;50.154;8.682;2023-04-25T12:00:32;15.10;52.70
65568;DHT22;52211;50.154;8.682;2023-04-25T12:03:04;15.10;52.90
65568;DHT22;52211;50.154;8.682;2023-04-25T12:05:38;15.10;52.90
65568;DHT22;52211;50.154;8.682;2023-04-25T12:08:13;15.00;53.00
65568;DHT22;52211;50.154;8.682;2023-04-25T12:10:47;15.00;52.50
65568;DHT22;52211;50.154;8.682;2023-04-25T12:13:22;15.00;52.50
65568;DHT22;52211;50.154;8.682;2023-04-25T12:15:58;15.00;51.90
65568;DHT22;52211;50.154;8.682;2023-04-25T12:18:27;14.90;52.20
65568;DHT22;52211;50.154;8.682;2023-04-25T12:21:00;14.80;52.50
65568;DHT22;52211;50.154;8.682;2023-04-25T12:23:30;14.70;52.10
65568;DHT22;52211;50.154;8.682;2023-04-25T12:25:58;14.70;52.20
65568;DHT22;52211;50.154;8.682;2023-04-25T12:28:25;14.60;52.20
65568;DHT22;52211;50.154;8.682;2023-04-25T12:30:58;14.50;52.20
65568;DHT22;52211;50.154;8.682;2023-04-25T12:33:29;14.50;52.10
65568;DHT22;52211;50.154;8.682;2023-04-25T12:36:02;14.40;52.40
65568;DHT22;52211;50.154;8.682;2023-04-25T12:38:42;14.30;52.50
65568;DHT22;52211;50.154;8.682;2023-04-25T12:41:09;14.30;52.50
65568;DHT22;52211;50.154;8.682;2023-04-25T12:43:36;14.30;52.70
65568;DHT22;52211;50.154;8.682;2023-04-25T12:46:08;14.30;52.90
65568;DHT22;52211;50.154;8.682;2023-04-25T12:48:40;14.30;53.10
65568;DHT22;52211;50.154;8.682;2023-04-25T12:51:13;14.30;53.00
65568;DHT22;52211;50.154;8.682;2023-04-25T12:53:42;14.40;53.10
65568;DHT22;52211;50.154;8.682;2023-04-25T12:56:11;14.50;53.00
65568;DHT22;52211;50.154;8.682;2023-04-25T12:58:38;14.50;53.60
65568;DHT22;52211;50.154;8.682;2023-04-25T13:01:09;14.60;53.00
65568;DHT22;52211;50.154;8.682;2023-04-25T13:03:38;14.70;52.90
65568;DHT22;52211;50.154;8.682;2023-04-25T13:06:07;14.80;52.90
65568;DHT22;52211;50.154;8.682;2023-04-25T13:08:34;14.90;52.70
65568;DHT22;52211;50.154;8.682;2023-04-25T13:11:05;15.00;52.60
65568;DHT22;52211;50.154;8.682;2023-04-25T13:13:36;15.10;52.60
65568;DHT22;52211;50.154;8.682;2023-04-25T13:16:04;15.10;52.40
65568;DHT22;52211;50.154;8.682;2023-04-25T13:18:34;15.30;52.30
65568;DHT22;52211;50.154;8.682;2023-04-25T13:21:01;15.30;52.10
65568;DHT22;52211;50.154;8.682;2023-04-25T13:23:31;15.40;51.90
65568;DHT22;52211;50.154;8.682;2023-04-25T13:30:52;15.40;51.00
65568;DHT22;52211;50.154;8.682;2023-04-25T13:33:20;15.40;51.90
65568;DHT22;52211;50.154;8.682;2023-04-25T13:35:49;15.40;51.70
65568;DHT22;52211;50.154;8.682;2023-04-25T13:38:25;15.50;51.70
65568;DHT22;52211;50.154;8.682;2023-04-25T13:40:54;15.50;51.60
65568;DHT22;52211;50.154;8.682;2023-04-25T13:43:22;15.40;51.30
65568;DHT22;52211;50.154;8.682;2023-04-25T13:45:52;15.40;51.10
65568;DHT22;52211;50.154;8.682;2023-04-25T13:48:21;15.50;50.80
65568;DHT22;52211;50.154;8.682;2023-04-25T13:50:51;15.40;50.60
65568;DHT22;52211;50.154;8.682;2023-04-25T13:53:17;15.40;50.70
65568;DHT22;52211;50.154;8.682;2023-04-25T13:55:47;15.40;50.60
65568;DHT22;52211;50.154;8.682;2023-04-25T13:58:17;15.40;50.70
65568;DHT22;52211;50.154;8.682;2023-04-25T14:00:46;15.40;51.40
65568;DHT22;52211;50.154;8.682;2023-04-25T14:03:18;15.40;50.60
65568;DHT22;52211;50.154;8.682;2023-04-25T14:05:47;15.40;50.70
65568;DHT22;52211;50.154;8.682;2023-04-25T14:08:20;15.50;50.70
65568;DHT22;52211;50.154;8.682;2023-04-25T14:10:49;15.60;50.50
65568;DHT22;52211;50.154;8.682;2023-04-25T14:13:16;15.70;50.70
65568;DHT22;52211;50.154;8.682;2023-04-25T14:15:43;15.80;50.40
65568;DHT22;52211;50.154;8.682;2023-04-25T14:18:10;16.00;50.30
65568;DHT22;52211;50.154;8.682;2023-04-25T14:20:37;16.10;50.00
65568;DHT22;52211;50.154;8.682;2023-04-25T14:23:09;16.10;49.60
65568;DHT22;52211;50.154;8.682;2023-04-25T14:25:36;16.20;49.10
65568;DHT22;52211;50.154;8.682;2023-04-25T14:28:03;16.20;49.30
65568;DHT22;52211;50.154;8.682;2023-04-25T14:30:30;16.20;49.00
65568;DHT22;52211;50.154;8.682;2023-04-25T14:32:59;16.20;49.70
65568;DHT22;52211;50.154;8.682;2023-04-25T14:35:26;16.20;48.90
65568;DHT22;52211;50.154;8.682;2023-04-25T14:37:56;16.20;48.90
65568;DHT22;52211;50.154;8.682;2023-04-25T14:40:25;16.10;48.50
65568;DHT22;52211;50.154;8.682;2023-04-25T14:42:57;16.10;48.50
65568;DHT22;52211;50.154;8.682;2023-04-25T14:45:24;16.00;48.40
65568;DHT22;52211;50.154;8.682;2023-04-25T14:47:58;16.00;48.30
65568;DHT22;52211;50.154;8.682;2023-04-25T14:50:27;15.90;48.20
65568;DHT22;52211;50.154;8.682;2023-04-25T14:52:56;15.80;48.20
65568;DHT22;52211;50.154;8.682;2023-04-25T14:55:28;15.80;48.20
65568;DHT22;52211;50.154;8.682;2023-04-25T14:57:57;15.70;47.70
65568;DHT22;52211;50.154;8.682;2023-04-25T15:00:24;15.70;48.10
65568;DHT22;52211;50.154;8.682;2023-04-25T15:02:54;15.60;48.10
65568;DHT22;52211;50.154;8.682;2023-04-25T15:05:21;15.60;48.10
65568;DHT22;52211;50.154;8.682;2023-04-25T15:07:51;15.50;48.10
65568;DHT22;52211;50.154;8.682;2023-04-25T15:10:18;15.50;48.20
65568;DHT22;52211;50.154;8.682;2023-04-25T15:12:47;15.50;48.00
65568;DHT22;52211;50.154;8.682;2023-04-25T15:15:17;15.40;48.00
65568;DHT22;52211;50.154;8.682;2023-04-25T15:17:53;15.40;47.80
65568;DHT22;52211;50.154;8.682;2023-04-25T15:20:24;15.40;47.80
65568;DHT22;52211;50.154;8.682;2023-04-25T15:22:54;15.40;47.80
65568;DHT22;52211;50.154;8.682;2023-04-25T15:25:21;15.40;47.80
65568;DHT22;52211;50.154;8.682;2023-04-25T15:27:48;15.50;47.90
65568;DHT22;52211;50.154;8.682;2023-04-25T15:30:16;15.50;48.00
65568;DHT22;52211;50.154;8.682;2023-04-25T15:32:48;15.60;48.00
65568;DHT22;52211;50.154;8.682;2023-04-25T15:35:23;15.70;47.70
65568;DHT22;52211;50.154;8.682;2023-04-25T15:37:52;15.70;47.60
65568;DHT22;52211;50.154;8.682;2023-04-25T15:40:23;15.90;47.30
65568;DHT22;52211;50.154;8.682;2023-04-25T15:42:54;15.90;47.30
65568;DHT22;52211;50.154;8.682;2023-04-25T15:45:28;16.00;47.60
65568;DHT22;52211;50.154;8.682;2023-04-25T15:47:59;16.10;47.20
65568;DHT22;52211;50.154;8.682;2023-04-25T15:50:27;16.20;47.10
65568;DHT22;52211;50.154;8.682;2023-04-25T15:52:59;16.30;47.20
65568;DHT22;52211;50.154;8.682;2023-04-25T15:55:27;16.30;47.40
65568;DHT22;52211;50.154;8.682;2023-04-25T15:57:58;16.50;47.50
65568;DHT22;52211;50.154;8.682;2023-04-25T16:00:27;16.50;47.30
65568;DHT22;52211;50.154;8.682;2023-04-25T16:02:55;16.60;47.20
65568;DHT22;52211;50.154;8.682;2023-04-25T16:05:22;16.80;47.20
65568;DHT22;52211;50.154;8.682;2023-04-25T16:07:54;16.90;46.90
65568;DHT22;52211;50.154;8.682;2023-04-25T16:10:21;17.00;46.50
65568;DHT22;52211;50.154;8.682;2023-04-25T16:12:50;17.10;46.60
65568;DHT22;52211;50.154;8.682;2023-04-25T16:15:22;17.20;46.40